Latest Weather Observations for Kalumburu

IDD60801

Issued at 11:01 pm CST Monday 26 June 2017 (issued every 30 minutes, with the page automatically refreshed every 10 minutes)

About weather observations | Map of weather stations | Latest weather observations for NT | Other Formats
Station Details ID: 001019 Name: KALUMBURU Lat: -14.30 Lon: 126.65 Height: 23.0 m
Data from the previous 72 hours. | See also: Recent months at Kalumburu
Date/Time
CST
Temp
°C
App
Temp
°C
Dew
Point
°C
Rel
Hum
%
Delta-T
°C
Wind Press
QNH
hPa
Press
MSL
hPa
Rain since
9am
mm
Dir  Spd
km/h
Gust
km/h
Spd
kts
Gust
kts
26/11:00pm 19.5 22.0 17.3 87 1.3 CALM 0 0 0 0 1015.4 1015.3 0.0
26/10:30pm 19.8 22.4 17.6 87 1.3 CALM 0 0 0 0 1015.3 1015.2 0.0
26/10:00pm 19.9 22.4 17.3 85 1.6 CALM 0 0 0 0 1015.2 1015.1 0.0
26/09:30pm 20.7 23.2 17.3 81 2.1 CALM 0 0 0 0 1014.9 1014.8 0.0
26/09:00pm 21.1 23.6 17.3 79 2.3 CALM 0 0 0 0 1014.6 1014.5 0.0
26/08:30pm 22.4 25.4 18.4 78 2.5 CALM 0 0 0 0 1014.4 1014.3 0.0
26/08:00pm 23.6 25.4 18.3 72 3.3 N 6 11 3 6 1013.9 1013.8 0.0
26/07:30pm 24.3 25.8 18.0 68 4.0 NNW 7 11 4 6 1013.7 1013.6 0.0
26/07:00pm 24.9 25.0 17.4 63 4.7 NNW 13 17 7 9 1013.4 1013.3 0.0
26/06:30pm 25.7 25.5 16.8 58 5.5 NNW 13 20 7 11 1013.0 1012.9 0.0
26/06:00pm 27.0 26.0 15.7 50 6.9 N 15 20 8 11 1012.6 1012.5 0.0
26/05:30pm 27.8 26.1 14.8 45 7.9 N 17 24 9 13 1012.5 1012.4 0.0
26/05:00pm 28.9 27.4 15.4 44 8.3 NNW 17 24 9 13 1012.2 1012.1 0.0
26/04:30pm 29.6 28.4 16.1 44 8.4 NNW 17 24 9 13 1012.1 1012.0 0.0
26/04:00pm 29.2 26.7 14.2 40 9.0 NNW 20 28 11 15 1012.2 1012.1 0.0
26/03:30pm 29.9 26.7 11.9 33 10.5 N 20 32 11 17 1011.9 1011.8 0.0
26/03:00pm 31.6 30.0 13.8 34 10.8 NNW 15 20 8 11 1011.9 1011.8 0.0
26/02:30pm 31.7 29.1 13.9 34 10.8 NNW 20 28 11 15 1012.2 1012.1 0.0
26/02:00pm 32.6 30.1 12.3 29 12.0 NNE 17 28 9 15 1012.5 1012.4 0.0
26/01:30pm 32.0 29.5 11.2 28 12.1 NNE 15 20 8 11 1013.0 1012.9 0.0
26/01:00pm 31.8 30.4 11.0 28 12.1 ENE 9 15 5 8 1013.4 1013.3 0.0
26/12:30pm 31.6 30.6 12.4 31 11.4 W 9 15 5 8 1013.6 1013.5 0.0
26/12:00pm 30.4 30.6 14.1 37 9.9 SW 6 11 3 6 1014.2 1014.1 0.0
26/11:30am 28.8 28.6 13.5 39 9.1 SSW 7 11 4 6 1014.5 1014.4 0.0
26/11:00am 28.2 28.3 14.4 42 8.3 SSW 7 11 4 6 1014.8 1014.7 0.0
26/10:30am 26.3 27.3 16.8 56 5.9 S 7 11 4 6 1015.1 1015.0 0.0
26/10:00am 24.5 25.8 17.2 63 4.5 S 6 9 3 5 1015.2 1015.1 0.0
26/09:30am 22.9 24.3 17.4 71 3.4 SSW 6 7 3 4 1015.1 1015.0 0.0
26/09:00am 21.4 24.0 17.6 79 2.3 CALM 0 7 0 4 1014.8 1014.7 0.0
26/08:30am 18.3 20.7 17.0 92 0.8 CALM 0 0 0 0 1014.4 1014.3 0.0
26/08:00am 15.4 16.6 13.9 91 0.8 CALM 0 0 0 0 1013.9 1013.8 0.0
26/07:30am 15.0 16.1 13.4 90 0.9 CALM 0 0 0 0 1013.6 1013.5 0.0
26/07:00am 15.3 16.5 13.8 91 0.8 CALM 0 0 0 0 1013.4 1013.3 0.0
26/06:30am 14.9 15.6 13.3 90 0.9 SSW 2 7 1 4 1013.2 1013.1 0.0
26/06:00am 15.6 16.9 14.1 91 0.8 CALM 0 0 0 0 1013.1 1013.0 0.0
26/05:30am 15.1 16.2 13.5 90 0.9 CALM 0 0 0 0 1013.0 1012.9 0.0
26/05:00am 15.3 16.5 13.7 90 0.9 CALM 0 0 0 0 1012.9 1012.8 0.0
26/04:30am 15.2 16.3 13.4 89 1.0 CALM 0 0 0 0 1012.8 1012.7 0.0
26/04:00am 15.5 16.7 13.7 89 1.0 CALM 0 0 0 0 1012.9 1012.8 0.0
26/03:30am 15.8 17.1 14.2 90 0.9 CALM 0 0 0 0 1012.8 1012.7 0.0
26/03:00am 16.0 17.4 14.4 90 0.9 CALM 0 0 0 0 1012.9 1012.8 0.0
26/02:30am 15.7 16.9 13.7 88 1.1 CALM 0 0 0 0 1013.2 1013.1 0.0
26/02:00am 16.2 17.5 14.2 88 1.1 CALM 0 0 0 0 1013.4 1013.3 0.0
26/01:30am 16.3 17.6 14.1 87 1.2 CALM 0 0 0 0 1013.6 1013.5 0.0
26/01:00am 16.6 17.9 14.2 86 1.4 CALM 0 0 0 0 1013.7 1013.6 0.0
26/12:30am 17.2 18.7 14.7 85 1.4 CALM 0 0 0 0 1013.7 1013.6 0.0
26/12:00am 17.7 19.3 15.0 84 1.6 CALM 0 0 0 0 1013.7 1013.6 0.0
 
Date/Time
CST
Temp
°C
App
Temp
°C
Dew
Point
°C
Rel
Hum
%
Delta-T
°C
Wind Press
QNH
hPa
Press
MSL
hPa
Rain since
9am
mm
Dir  Spd
km/h
Gust
km/h
Spd
kts
Gust
kts
25/11:30pm 17.6 19.2 14.9 84 1.6 CALM 0 0 0 0 1013.9 1013.8 0.0
25/11:00pm 18.1 19.9 15.4 84 1.6 CALM 0 0 0 0 1014.0 1013.9 0.0
25/10:30pm 18.5 20.3 15.4 82 1.8 CALM 0 0 0 0 1013.9 1013.8 0.0
25/10:00pm 19.1 20.9 15.6 80 2.1 CALM 0 0 0 0 1013.6 1013.5 0.0
25/09:30pm 21.1 22.8 17.1 78 2.4 WNW 4 7 2 4 1013.3 1013.2 0.0
25/09:00pm 21.7 22.8 16.6 73 3.1 NW 6 7 3 4 1012.9 1012.8 0.0
25/08:30pm 21.8 24.5 17.8 78 2.5 CALM 0 0 0 0 1012.6 1012.5 0.0
25/08:00pm 23.5 25.1 17.9 71 3.5 NW 6 6 3 3 1012.3 1012.2 0.0
25/07:30pm 24.5 25.8 18.4 69 3.9 NNW 9 15 5 8 1012.0 1011.9 0.0
25/07:00pm 25.2 25.9 17.9 64 4.6 NW 11 15 6 8 1011.6 1011.5 0.0
25/06:30pm 26.3 27.6 17.1 57 5.7 NW 6 11 3 6 1011.4 1011.3 0.0
25/06:00pm 27.3 27.1 16.6 52 6.6 NNW 13 19 7 10 1011.2 1011.1 0.0
25/05:30pm 28.0 27.4 16.6 50 7.1 NNW 15 24 8 13 1010.9 1010.8 0.0
25/05:00pm 28.7 27.4 15.9 45 7.9 NNW 17 26 9 14 1010.8 1010.7 0.0
25/04:30pm 29.8 28.2 15.1 40 9.0 NNW 17 22 9 12 1010.8 1010.7 0.0
25/04:00pm 30.9 29.4 15.3 38 9.6 NNW 17 28 9 15 1010.8 1010.7 0.0
25/03:30pm 31.9 31.0 13.6 32 11.1 NNE 11 24 6 13 1011.0 1010.9 0.0
25/03:00pm 33.1 31.0 11.0 26 12.9 ENE 13 24 7 13 1011.0 1010.9 0.0
25/02:30pm 32.4 30.1 11.6 28 12.2 ESE 15 24 8 13 1011.3 1011.2 0.0
25/02:00pm 33.3 31.8 11.8 27 12.7 NE 11 20 6 11 1011.7 1011.6 0.0
25/01:30pm 33.0 31.7 12.6 29 12.2 ENE 11 17 6 9 1012.3 1012.2 0.0
25/01:00pm 32.4 30.7 12.6 30 11.8 E 13 26 7 14 1012.7 1012.6 0.0
25/12:30pm 31.9 30.4 13.2 32 11.2 E 13 20 7 11 1013.3 1013.2 0.0
25/12:00pm 31.4 30.3 13.2 33 10.9 ENE 11 19 6 10 1013.8 1013.7 0.0
25/11:30am 30.5 29.8 14.2 37 9.9 ESE 11 19 6 10 1014.1 1014.0 0.0
25/11:00am 28.4 29.1 17.0 50 7.1 SSW 9 13 5 7 1014.3 1014.2 0.0
25/10:30am 27.2 28.3 17.9 56 5.9 S 9 13 5 7 1014.5 1014.4 0.0
25/10:00am 25.2 26.6 17.9 64 4.6 S 7 9 4 5 1014.6 1014.5 0.0
25/09:30am 23.4 25.1 18.1 72 3.3 S 6 9 3 5 1014.5 1014.4 0.0
25/09:00am 21.4 23.2 18.4 83 1.9 SSW 6 7 3 4 1014.5 1014.4 0.0
25/08:30am 19.2 22.0 17.9 92 0.8 CALM 0 0 0 0 1014.0 1013.9 0.0
25/08:00am 16.6 18.3 15.1 91 0.9 CALM 0 0 0 0 1013.7 1013.6 0.0
25/07:30am 16.2 17.7 14.6 90 0.9 CALM 0 0 0 0 1013.3 1013.2 0.0
25/07:00am 16.4 18.0 14.8 90 0.9 CALM 0 0 0 0 1012.9 1012.8 0.0
25/06:30am 16.7 18.4 15.1 90 0.9 CALM 0 0 0 0 1012.7 1012.6 0.0
25/06:00am 16.5 18.1 14.9 90 0.9 CALM 0 0 0 0 1012.5 1012.4 0.0
25/05:30am 17.1 18.9 15.6 91 0.9 CALM 0 0 0 0 1012.5 1012.4 0.0
25/05:00am 16.8 18.4 15.0 89 1.0 CALM 0 0 0 0 1012.5 1012.4 0.0
25/04:30am 17.1 18.9 15.4 90 1.0 CALM 0 0 0 0 1012.6 1012.5 0.0
25/04:00am 17.3 19.1 15.6 90 1.0 CALM 0 0 0 0 1012.6 1012.5 0.0
25/03:30am 17.3 19.1 15.6 90 1.0 CALM 0 0 0 0 1012.6 1012.5 0.0
25/03:00am 17.7 19.7 16.0 90 1.0 CALM 0 0 0 0 1012.7 1012.6 0.0
25/02:30am 17.9 20.0 16.2 90 1.0 CALM 0 0 0 0 1012.7 1012.6 0.0
25/02:00am 17.7 19.6 15.7 88 1.2 CALM 0 0 0 0 1013.0 1012.9 0.0
25/01:30am 18.2 20.0 16.4 89 1.1 ENE 2 6 1 3 1013.1 1013.0 0.0
25/01:00am 18.3 20.3 15.9 86 1.4 CALM 0 0 0 0 1013.0 1012.9 0.0
25/12:30am 19.4 21.2 17.5 89 1.2 N 4 6 2 3 1013.1 1013.0 0.0
25/12:00am 19.2 21.5 16.8 86 1.4 CALM 0 0 0 0 1013.2 1013.1 0.0
 
Date/Time
CST
Temp
°C
App
Temp
°C
Dew
Point
°C
Rel
Hum
%
Delta-T
°C
Wind Press
QNH
hPa
Press
MSL
hPa
Rain since
9am
mm
Dir  Spd
km/h
Gust
km/h
Spd
kts
Gust
kts
24/11:30pm 19.6 21.9 16.8 84 1.7 CALM 0 0 0 0 1013.4 1013.3 0.0
24/11:00pm 20.4 23.0 17.4 83 1.8 CALM 0 0 0 0 1013.4 1013.3 0.0
24/10:30pm 21.1 23.7 17.5 80 2.2 CALM 0 6 0 3 1013.2 1013.1 0.0
24/10:00pm 22.1 25.0 18.1 78 2.5 CALM 0 0 0 0 1013.0 1012.9 0.0
24/09:30pm 23.6 25.4 18.3 72 3.3 N 6 7 3 4 1012.6 1012.5 0.0
24/09:00pm 24.4 26.2 18.3 69 3.8 NNW 6 9 3 5 1012.2 1012.1 0.0
24/08:30pm 24.9 26.4 18.1 66 4.3 NNE 7 11 4 6 1011.8 1011.7 0.0
24/08:00pm 25.6 26.6 17.8 62 4.9 N 9 15 5 8 1011.4 1011.3 0.0
24/07:30pm 25.4 26.6 17.3 61 5.1 N 7 11 4 6 1011.0 1010.9 0.0
24/07:00pm 26.2 26.8 17.6 59 5.4 N 11 17 6 9 1010.8 1010.7 0.0
24/06:30pm 27.4 26.4 16.7 52 6.7 NNW 17 26 9 14 1010.6 1010.5 0.0
24/06:00pm 28.4 27.7 16.3 47 7.5 NNW 15 22 8 12 1010.1 1010.0 0.0
24/05:30pm 29.0 28.1 16.9 48 7.6 NNW 17 24 9 13 1009.7 1009.6 0.0
24/05:00pm 29.7 28.5 16.1 43 8.5 NW 17 26 9 14 1009.5 1009.4 0.0
24/04:30pm 30.6 28.9 14.7 38 9.7 N 17 26 9 14 1009.5 1009.4 0.0
24/04:00pm 31.1 29.5 15.1 38 9.8 NNW 17 24 9 13 1009.6 1009.5 0.0
24/03:30pm 31.6 29.7 14.3 35 10.6 NNW 17 26 9 14 1009.8 1009.7 0.0
24/03:00pm 32.2 30.0 13.4 32 11.3 NNW 17 28 9 15 1009.9 1009.8 0.0
24/02:30pm 32.5 30.7 13.2 31 11.6 NNW 15 22 8 12 1010.5 1010.4 0.0
24/02:00pm 33.6 32.3 12.6 28 12.6 NE 11 24 6 13 1010.9 1010.8 0.0
24/01:30pm 32.8 30.5 11.9 28 12.3 NE 15 20 8 11 1011.4 1011.3 0.0
24/01:00pm 32.8 30.9 12.9 29 11.9 NE 15 24 8 13 1012.1 1012.0 0.0
24/12:30pm 32.7 31.4 13.8 31 11.5 ENE 13 20 7 11 1012.5 1012.4 0.0
24/12:00pm 32.7 31.3 13.4 31 11.6 NE 13 20 7 11 1012.8 1012.7 0.0
24/11:30am 31.9 31.2 13.2 32 11.2 ENE 9 17 5 9 1013.3 1013.2 0.0
24/11:00am 29.3 29.5 14.3 40 9.1 SSW 6 9 3 5 1013.6 1013.5 0.0
24/10:30am 27.1 26.7 14.1 44 7.8 SSW 9 11 5 6 1013.9 1013.8 0.0
24/10:00am 25.2 24.9 13.4 48 6.9 SSW 7 9 4 5 1013.9 1013.8 0.0
24/09:30am 23.4 24.0 15.2 60 4.9 SSW 6 7 3 4 1013.8 1013.7 0.0
24/09:00am 21.1 21.3 14.7 67 3.8 S 7 9 4 5 1013.7 1013.6 0.0
24/08:30am 19.2 19.8 15.3 78 2.3 SSW 6 7 3 4 1013.4 1013.3 0.0
24/08:00am 15.5 16.3 13.7 89 1.0 SSW 2 9 1 5 1012.9 1012.8 0.0
24/07:30am 15.1 16.1 13.1 88 1.1 CALM 0 0 0 0 1012.5 1012.4 0.0
24/07:00am 15.1 16.1 13.1 88 1.1 CALM 0 0 0 0 1012.2 1012.1 0.0
24/06:30am 15.5 16.6 13.5 88 1.1 CALM 0 0 0 0 1012.0 1011.9 0.0
24/06:00am 15.9 17.2 14.1 89 1.0 CALM 0 6 0 3 1012.2 1012.1 0.0
24/05:30am 15.7 15.6 13.9 89 1.0 SSE 7 9 4 5 1012.1 1012.0 0.0
24/05:00am 15.5 15.5 13.5 88 1.1 SSE 6 9 3 5 1012.2 1012.1 0.0
24/04:30am 15.8 15.6 13.6 87 1.2 S 7 7 4 4 1012.3 1012.2 0.0
24/04:00am 16.8 18.4 14.8 88 1.2 CALM 0 0 0 0 1012.2 1012.1 0.0
24/03:30am 16.5 18.0 14.7 89 1.0 CALM 0 0 0 0 1012.4 1012.3 0.0
24/03:00am 16.3 17.7 14.3 88 1.1 CALM 0 0 0 0 1012.7 1012.6 0.0
24/02:30am 16.6 18.0 14.4 87 1.3 CALM 0 0 0 0 1012.8 1012.7 0.0
24/02:00am 16.7 18.1 14.3 86 1.4 CALM 0 0 0 0 1013.1 1013.0 0.0
24/01:30am 17.1 18.6 14.7 86 1.4 CALM 0 0 0 0 1013.2 1013.1 0.0
24/01:00am 17.6 19.2 15.0 85 1.5 CALM 0 0 0 0 1013.4 1013.3 0.0

Other Formats:

Comma delimited format used in spreadsheet applications
http://www.bom.gov.au/fwo/IDD60801/IDD60801.94100.axf

JavaScript Object Notation format (JSON) in row-major order
http://www.bom.gov.au/fwo/IDD60801/IDD60801.94100.json